Gilead, Nebraska
Current Conditions -  °F | °C
As of 5:35 PM on Saturday 20 Dec 2014 (Local Time) from KHJH Reporting Station
Haze Haze  
Wind Chill: 33°   Ceiling: Unl
Heat Index: 33°   Visibility: 5mi
Dew Point: 31°   Wind: 3mph
Humidity: 92%   Direction: 140°SE
Pressure: 30.03"   Gusts: NA
Location:  40.15°N, 97.41°W
Report Text: KHJH 202335Z AUTO 14003KT 5SM BR CLR 01/00 A3003 RMK AO2 T00081004
Loading
Personal Weather Stations






























Interactive Weather Map New forecast layout! Learn more

10-Day Weather Forecast

Advertisements
Track Severe Weather on mobile